sensor_id;sensor_type;location;lat;lon;timestamp;pressure;altitude;pressure_sealevel;temperature;humidity
27202;BME280;14717;46.924;15.474;2022-11-20T00:02:24;97395.25;;;2.66;100.00
27202;BME280;14717;46.924;15.474;2022-11-20T00:04:49;97377.81;;;2.67;100.00
27202;BME280;14717;46.924;15.474;2022-11-20T00:07:15;97390.63;;;2.66;100.00
27202;BME280;14717;46.924;15.474;2022-11-20T00:09:40;97392.13;;;2.79;100.00
27202;BME280;14717;46.924;15.474;2022-11-20T00:12:05;97403.91;;;2.84;100.00
27202;BME280;14717;46.924;15.474;2022-11-20T00:14:31;97403.59;;;2.81;100.00
27202;BME280;14717;46.924;15.474;2022-11-20T00:16:56;97417.59;;;2.89;100.00
27202;BME280;14717;46.924;15.474;2022-11-20T00:19:21;97415.25;;;2.97;100.00
27202;BME280;14717;46.924;15.474;2022-11-20T00:21:47;97422.97;;;3.05;100.00
27202;BME280;14717;46.924;15.474;2022-11-20T00:24:12;97433.50;;;2.97;100.00
27202;BME280;14717;46.924;15.474;2022-11-20T00:26:38;97431.50;;;2.88;100.00
27202;BME280;14717;46.924;15.474;2022-11-20T00:29:03;97446.53;;;2.69;100.00
27202;BME280;14717;46.924;15.474;2022-11-20T00:31:29;97448.00;;;2.55;100.00
27202;BME280;14717;46.924;15.474;2022-11-20T00:33:55;97441.88;;;2.48;100.00
27202;BME280;14717;46.924;15.474;2022-11-20T00:36:23;97445.72;;;2.47;100.00
27202;BME280;14717;46.924;15.474;2022-11-20T00:38:53;97450.66;;;2.50;100.00
27202;BME280;14717;46.924;15.474;2022-11-20T00:41:19;97452.34;;;2.56;100.00
27202;BME280;14717;46.924;15.474;2022-11-20T00:43:45;97454.78;;;2.74;100.00
27202;BME280;14717;46.924;15.474;2022-11-20T00:46:15;97452.97;;;2.84;100.00
27202;BME280;14717;46.924;15.474;2022-11-20T00:48:42;97452.03;;;2.95;100.00
27202;BME280;14717;46.924;15.474;2022-11-20T00:51:08;97462.13;;;2.95;100.00
27202;BME280;14717;46.924;15.474;2022-11-20T00:53:34;97454.25;;;2.98;100.00
27202;BME280;14717;46.924;15.474;2022-11-20T00:56:02;97455.53;;;2.91;100.00
27202;BME280;14717;46.924;15.474;2022-11-20T00:58:35;97459.16;;;2.75;100.00
27202;BME280;14717;46.924;15.474;2022-11-20T01:01:01;97457.56;;;2.79;100.00
27202;BME280;14717;46.924;15.474;2022-11-20T01:03:27;97458.00;;;2.71;100.00
27202;BME280;14717;46.924;15.474;2022-11-20T01:05:53;97447.28;;;2.64;100.00
27202;BME280;14717;46.924;15.474;2022-11-20T01:08:18;97447.81;;;2.61;100.00
27202;BME280;14717;46.924;15.474;2022-11-20T01:10:43;97448.50;;;2.73;100.00
27202;BME280;14717;46.924;15.474;2022-11-20T01:13:09;97460.91;;;2.86;100.00
27202;BME280;14717;46.924;15.474;2022-11-20T01:15:52;97466.38;;;2.86;100.00
27202;BME280;14717;46.924;15.474;2022-11-20T01:18:18;97465.75;;;2.79;100.00
27202;BME280;14717;46.924;15.474;2022-11-20T01:20:43;97464.69;;;2.80;100.00
27202;BME280;14717;46.924;15.474;2022-11-20T01:23:09;97454.44;;;2.92;100.00
27202;BME280;14717;46.924;15.474;2022-11-20T01:25:34;97457.13;;;2.87;100.00
27202;BME280;14717;46.924;15.474;2022-11-20T01:27:59;97461.44;;;2.83;100.00
27202;BME280;14717;46.924;15.474;2022-11-20T01:30:25;97458.19;;;2.86;100.00
27202;BME280;14717;46.924;15.474;2022-11-20T01:32:50;97459.91;;;2.92;100.00
27202;BME280;14717;46.924;15.474;2022-11-20T01:35:16;97467.03;;;2.93;100.00
27202;BME280;14717;46.924;15.474;2022-11-20T01:37:41;97459.28;;;2.85;100.00
27202;BME280;14717;46.924;15.474;2022-11-20T01:40:07;97465.25;;;2.82;100.00
27202;BME280;14717;46.924;15.474;2022-11-20T01:42:33;97469.47;;;2.94;100.00
27202;BME280;14717;46.924;15.474;2022-11-20T01:45:50;97447.00;;;3.08;100.00
27202;BME280;14717;46.924;15.474;2022-11-20T01:48:19;97446.84;;;2.94;100.00
27202;BME280;14717;46.924;15.474;2022-11-20T01:50:46;97450.53;;;2.83;100.00
27202;BME280;14717;46.924;15.474;2022-11-20T01:53:15;97447.34;;;2.91;100.00
27202;BME280;14717;46.924;15.474;2022-11-20T01:55:50;97445.22;;;2.93;100.00
27202;BME280;14717;46.924;15.474;2022-11-20T01:58:22;97430.97;;;2.91;100.00
27202;BME280;14717;46.924;15.474;2022-11-20T02:00:48;97431.81;;;2.91;100.00
27202;BME280;14717;46.924;15.474;2022-11-20T02:03:16;97443.03;;;2.95;100.00
27202;BME280;14717;46.924;15.474;2022-11-20T02:05:55;97438.03;;;2.87;100.00
27202;BME280;14717;46.924;15.474;2022-11-20T02:08:23;97445.72;;;2.90;100.00
27202;BME280;14717;46.924;15.474;2022-11-20T02:10:49;97435.41;;;2.96;100.00
27202;BME280;14717;46.924;15.474;2022-11-20T02:13:14;97441.00;;;3.06;100.00
27202;BME280;14717;46.924;15.474;2022-11-20T02:15:59;97442.91;;;2.85;100.00
27202;BME280;14717;46.924;15.474;2022-11-20T02:18:25;97441.69;;;2.76;100.00
27202;BME280;14717;46.924;15.474;2022-11-20T02:20:55;97442.50;;;2.71;100.00
27202;BME280;14717;46.924;15.474;2022-11-20T02:25:49;97433.09;;;2.62;100.00
27202;BME280;14717;46.924;15.474;2022-11-20T02:28:15;97429.03;;;2.86;100.00
27202;BME280;14717;46.924;15.474;2022-11-20T02:30:41;97423.38;;;2.93;100.00
27202;BME280;14717;46.924;15.474;2022-11-20T02:33:07;97415.09;;;2.83;100.00
27202;BME280;14717;46.924;15.474;2022-11-20T02:37:59;97436.63;;;2.84;100.00
27202;BME280;14717;46.924;15.474;2022-11-20T02:40:25;97428.25;;;2.91;100.00
27202;BME280;14717;46.924;15.474;2022-11-20T02:42:55;97426.88;;;2.88;100.00
27202;BME280;14717;46.924;15.474;2022-11-20T02:45:21;97422.69;;;2.81;100.00
27202;BME280;14717;46.924;15.474;2022-11-20T02:47:47;97421.50;;;2.72;100.00
27202;BME280;14717;46.924;15.474;2022-11-20T02:50:13;97416.22;;;2.65;100.00
27202;BME280;14717;46.924;15.474;2022-11-20T02:52:38;97407.75;;;2.62;100.00
27202;BME280;14717;46.924;15.474;2022-11-20T02:55:04;97407.88;;;2.72;100.00
27202;BME280;14717;46.924;15.474;2022-11-20T02:57:29;97402.03;;;2.85;100.00
27202;BME280;14717;46.924;15.474;2022-11-20T02:59:55;97411.31;;;2.89;100.00
27202;BME280;14717;46.924;15.474;2022-11-20T03:02:20;97412.38;;;2.83;100.00
27202;BME280;14717;46.924;15.474;2022-11-20T03:04:46;97406.91;;;2.83;100.00
27202;BME280;14717;46.924;15.474;2022-11-20T03:07:11;97415.97;;;2.88;100.00
27202;BME280;14717;46.924;15.474;2022-11-20T03:09:37;97424.97;;;2.89;100.00
27202;BME280;14717;46.924;15.474;2022-11-20T03:12:05;97418.69;;;2.88;100.00
27202;BME280;14717;46.924;15.474;2022-11-20T03:14:30;97417.94;;;2.93;100.00
27202;BME280;14717;46.924;15.474;2022-11-20T03:16:56;97414.09;;;2.94;100.00
27202;BME280;14717;46.924;15.474;2022-11-20T03:19:22;97407.38;;;3.01;100.00
27202;BME280;14717;46.924;15.474;2022-11-20T03:21:48;97407.94;;;3.03;100.00
27202;BME280;14717;46.924;15.474;2022-11-20T03:24:13;97408.81;;;3.08;100.00
27202;BME280;14717;46.924;15.474;2022-11-20T03:26:39;97411.84;;;3.12;100.00
27202;BME280;14717;46.924;15.474;2022-11-20T03:29:05;97408.88;;;3.13;100.00
27202;BME280;14717;46.924;15.474;2022-11-20T03:31:36;97410.94;;;3.01;100.00
27202;BME280;14717;46.924;15.474;2022-11-20T03:34:02;97412.97;;;2.90;100.00
27202;BME280;14717;46.924;15.474;2022-11-20T03:36:29;97416.78;;;2.89;100.00
27202;BME280;14717;46.924;15.474;2022-11-20T03:38:55;97416.03;;;2.93;100.00
27202;BME280;14717;46.924;15.474;2022-11-20T03:41:26;97411.88;;;2.91;100.00
27202;BME280;14717;46.924;15.474;2022-11-20T03:46:22;97413.09;;;2.99;100.00
27202;BME280;14717;46.924;15.474;2022-11-20T03:48:47;97412.78;;;2.96;100.00
27202;BME280;14717;46.924;15.474;2022-11-20T03:51:22;97403.72;;;2.91;100.00
27202;BME280;14717;46.924;15.474;2022-11-20T03:53:50;97407.78;;;2.88;100.00
27202;BME280;14717;46.924;15.474;2022-11-20T03:56:18;97405.97;;;2.98;100.00
27202;BME280;14717;46.924;15.474;2022-11-20T03:58:44;97399.34;;;2.90;100.00
27202;BME280;14717;46.924;15.474;2022-11-20T04:01:18;97392.13;;;2.79;100.00
27202;BME280;14717;46.924;15.474;2022-11-20T04:03:45;97386.94;;;2.77;100.00
27202;BME280;14717;46.924;15.474;2022-11-20T04:06:18;97390.59;;;2.88;100.00
27202;BME280;14717;46.924;15.474;2022-11-20T04:08:45;97384.56;;;2.86;100.00
27202;BME280;14717;46.924;15.474;2022-11-20T04:11:18;97382.44;;;2.88;100.00
27202;BME280;14717;46.924;15.474;2022-11-20T04:13:50;97383.25;;;2.88;100.00
27202;BME280;14717;46.924;15.474;2022-11-20T04:16:16;97382.47;;;2.93;100.00
27202;BME280;14717;46.924;15.474;2022-11-20T04:18:42;97385.88;;;3.04;100.00
27202;BME280;14717;46.924;15.474;2022-11-20T04:21:08;97379.47;;;2.94;100.00
27202;BME280;14717;46.924;15.474;2022-11-20T04:23:34;97379.66;;;2.83;100.00
27202;BME280;14717;46.924;15.474;2022-11-20T04:26:10;97379.59;;;2.78;100.00
27202;BME280;14717;46.924;15.474;2022-11-20T04:28:37;97365.00;;;2.67;100.00
27202;BME280;14717;46.924;15.474;2022-11-20T04:33:29;97377.53;;;2.90;100.00
27202;BME280;14717;46.924;15.474;2022-11-20T04:35:55;97376.44;;;2.91;100.00
27202;BME280;14717;46.924;15.474;2022-11-20T04:38:20;97371.09;;;3.00;100.00
27202;BME280;14717;46.924;15.474;2022-11-20T04:40:45;97364.22;;;2.93;100.00
27202;BME280;14717;46.924;15.474;2022-11-20T04:43:11;97371.69;;;3.02;100.00
27202;BME280;14717;46.924;15.474;2022-11-20T04:45:36;97362.13;;;3.05;100.00
27202;BME280;14717;46.924;15.474;2022-11-20T04:48:01;97366.28;;;3.07;100.00
27202;BME280;14717;46.924;15.474;2022-11-20T04:50:27;97364.97;;;3.15;100.00
27202;BME280;14717;46.924;15.474;2022-11-20T04:52:52;97359.19;;;3.11;100.00
27202;BME280;14717;46.924;15.474;2022-11-20T04:55:17;97358.13;;;3.12;100.00
27202;BME280;14717;46.924;15.474;2022-11-20T04:57:43;97358.69;;;3.14;100.00
27202;BME280;14717;46.924;15.474;2022-11-20T05:00:08;97351.53;;;3.08;100.00
27202;BME280;14717;46.924;15.474;2022-11-20T05:02:34;97361.97;;;3.16;100.00
27202;BME280;14717;46.924;15.474;2022-11-20T05:04:59;97358.53;;;3.26;100.00
27202;BME280;14717;46.924;15.474;2022-11-20T05:07:25;97352.19;;;3.20;100.00
27202;BME280;14717;46.924;15.474;2022-11-20T05:09:50;97352.59;;;3.02;100.00
27202;BME280;14717;46.924;15.474;2022-11-20T05:12:15;97361.94;;;2.85;100.00
27202;BME280;14717;46.924;15.474;2022-11-20T05:14:41;97360.72;;;2.97;100.00
27202;BME280;14717;46.924;15.474;2022-11-20T05:17:09;97351.56;;;3.13;100.00
27202;BME280;14717;46.924;15.474;2022-11-20T05:19:35;97354.47;;;3.02;100.00
27202;BME280;14717;46.924;15.474;2022-11-20T05:22:00;97358.00;;;2.97;100.00
27202;BME280;14717;46.924;15.474;2022-11-20T05:24:25;97362.66;;;3.02;100.00
27202;BME280;14717;46.924;15.474;2022-11-20T05:26:51;97356.94;;;3.03;100.00
27202;BME280;14717;46.924;15.474;2022-11-20T05:29:16;97356.88;;;2.98;100.00
27202;BME280;14717;46.924;15.474;2022-11-20T05:31:41;97363.78;;;3.06;100.00
27202;BME280;14717;46.924;15.474;2022-11-20T05:34:07;97367.09;;;3.08;100.00
27202;BME280;14717;46.924;15.474;2022-11-20T05:36:33;97356.88;;;2.98;100.00
27202;BME280;14717;46.924;15.474;2022-11-20T05:38:58;97361.22;;;2.95;100.00
27202;BME280;14717;46.924;15.474;2022-11-20T05:41:24;97357.34;;;2.91;100.00
27202;BME280;14717;46.924;15.474;2022-11-20T05:43:50;97359.72;;;2.82;100.00
27202;BME280;14717;46.924;15.474;2022-11-20T05:46:19;97363.84;;;2.85;100.00
27202;BME280;14717;46.924;15.474;2022-11-20T05:48:46;97367.69;;;2.89;100.00
27202;BME280;14717;46.924;15.474;2022-11-20T05:51:14;97365.53;;;2.91;100.00
27202;BME280;14717;46.924;15.474;2022-11-20T05:53:40;97368.25;;;2.91;100.00
27202;BME280;14717;46.924;15.474;2022-11-20T05:56:06;97366.56;;;2.85;100.00
27202;BME280;14717;46.924;15.474;2022-11-20T05:58:33;97375.81;;;2.84;100.00
27202;BME280;14717;46.924;15.474;2022-11-20T06:01:10;97376.44;;;2.91;100.00
27202;BME280;14717;46.924;15.474;2022-11-20T06:03:36;97374.88;;;2.95;100.00
27202;BME280;14717;46.924;15.474;2022-11-20T06:06:04;97383.16;;;3.04;100.00
27202;BME280;14717;46.924;15.474;2022-11-20T06:08:30;97388.69;;;3.14;100.00
27202;BME280;14717;46.924;15.474;2022-11-20T06:10:56;97390.03;;;3.12;100.00
27202;BME280;14717;46.924;15.474;2022-11-20T06:13:21;97384.06;;;3.15;100.00
27202;BME280;14717;46.924;15.474;2022-11-20T06:15:51;97380.53;;;3.14;100.00
27202;BME280;14717;46.924;15.474;2022-11-20T06:18:17;97381.38;;;3.20;100.00
27202;BME280;14717;46.924;15.474;2022-11-20T06:20:42;97394.25;;;3.24;100.00
27202;BME280;14717;46.924;15.474;2022-11-20T06:23:08;97398.66;;;3.30;100.00
27202;BME280;14717;46.924;15.474;2022-11-20T06:25:37;97396.53;;;3.32;100.00
27202;BME280;14717;46.924;15.474;2022-11-20T06:28:03;97393.00;;;3.37;100.00
27202;BME280;14717;46.924;15.474;2022-11-20T06:30:28;97395.16;;;3.35;100.00
27202;BME280;14717;46.924;15.474;2022-11-20T06:32:53;97384.16;;;3.25;100.00
27202;BME280;14717;46.924;15.474;2022-11-20T06:35:19;97395.94;;;3.30;100.00
27202;BME280;14717;46.924;15.474;2022-11-20T06:37:44;97402.78;;;3.33;100.00
27202;BME280;14717;46.924;15.474;2022-11-20T06:40:10;97402.06;;;3.42;100.00
27202;BME280;14717;46.924;15.474;2022-11-20T06:42:35;97393.38;;;3.50;100.00
27202;BME280;14717;46.924;15.474;2022-11-20T06:45:00;97406.97;;;3.45;100.00
27202;BME280;14717;46.924;15.474;2022-11-20T06:47:26;97405.97;;;3.51;100.00
27202;BME280;14717;46.924;15.474;2022-11-20T06:49:51;97410.41;;;3.57;100.00
27202;BME280;14717;46.924;15.474;2022-11-20T06:52:16;97417.69;;;3.51;100.00
27202;BME280;14717;46.924;15.474;2022-11-20T06:54:42;97420.69;;;3.50;100.00
27202;BME280;14717;46.924;15.474;2022-11-20T06:57:07;97424.31;;;3.55;100.00
27202;BME280;14717;46.924;15.474;2022-11-20T06:59:32;97415.56;;;3.53;100.00
27202;BME280;14717;46.924;15.474;2022-11-20T07:01:58;97416.53;;;3.42;100.00
27202;BME280;14717;46.924;15.474;2022-11-20T07:04:23;97424.50;;;3.49;100.00
27202;BME280;14717;46.924;15.474;2022-11-20T07:06:48;97417.59;;;3.41;100.00
27202;BME280;14717;46.924;15.474;2022-11-20T07:09:14;97423.38;;;3.45;100.00
27202;BME280;14717;46.924;15.474;2022-11-20T07:11:39;97425.44;;;3.33;100.00
27202;BME280;14717;46.924;15.474;2022-11-20T07:14:05;97432.25;;;3.31;100.00
27202;BME280;14717;46.924;15.474;2022-11-20T07:16:30;97427.81;;;3.25;100.00
27202;BME280;14717;46.924;15.474;2022-11-20T07:18:55;97419.88;;;3.23;100.00
27202;BME280;14717;46.924;15.474;2022-11-20T07:21:21;97423.16;;;3.25;100.00
27202;BME280;14717;46.924;15.474;2022-11-20T07:23:46;97422.75;;;3.38;100.00
27202;BME280;14717;46.924;15.474;2022-11-20T07:26:11;97423.38;;;3.45;100.00
27202;BME280;14717;46.924;15.474;2022-11-20T07:28:37;97425.38;;;3.54;100.00
27202;BME280;14717;46.924;15.474;2022-11-20T07:31:03;97427.38;;;3.64;100.00
27202;BME280;14717;46.924;15.474;2022-11-20T07:33:30;97436.13;;;3.66;100.00
27202;BME280;14717;46.924;15.474;2022-11-20T07:35:55;97446.41;;;3.54;100.00
27202;BME280;14717;46.924;15.474;2022-11-20T07:38:20;97438.03;;;3.65;100.00
27202;BME280;14717;46.924;15.474;2022-11-20T07:40:46;97433.44;;;3.71;100.00
27202;BME280;14717;46.924;15.474;2022-11-20T07:43:11;97439.94;;;3.65;100.00
27202;BME280;14717;46.924;15.474;2022-11-20T07:45:37;97449.72;;;3.61;100.00
27202;BME280;14717;46.924;15.474;2022-11-20T07:48:02;97448.63;;;3.57;100.00
27202;BME280;14717;46.924;15.474;2022-11-20T07:50:27;97449.06;;;3.49;100.00
27202;BME280;14717;46.924;15.474;2022-11-20T07:53:04;97453.78;;;3.53;100.00
27202;BME280;14717;46.924;15.474;2022-11-20T07:55:30;97450.84;;;3.65;100.00
27202;BME280;14717;46.924;15.474;2022-11-20T07:57:55;97446.63;;;3.79;100.00
27202;BME280;14717;46.924;15.474;2022-11-20T08:00:22;97443.97;;;3.88;100.00
27202;BME280;14717;46.924;15.474;2022-11-20T08:02:48;97455.00;;;4.03;100.00
27202;BME280;14717;46.924;15.474;2022-11-20T08:05:13;97454.19;;;4.03;100.00
27202;BME280;14717;46.924;15.474;2022-11-20T08:07:39;97453.91;;;3.99;100.00
27202;BME280;14717;46.924;15.474;2022-11-20T08:10:06;97463.59;;;3.85;100.00
27202;BME280;14717;46.924;15.474;2022-11-20T08:12:32;97469.28;;;3.79;100.00
27202;BME280;14717;46.924;15.474;2022-11-20T08:15:16;97457.59;;;3.83;100.00
27202;BME280;14717;46.924;15.474;2022-11-20T08:17:41;97465.34;;;3.96;100.00
27202;BME280;14717;46.924;15.474;2022-11-20T08:20:07;97468.63;;;3.98;100.00
27202;BME280;14717;46.924;15.474;2022-11-20T08:22:32;97475.69;;;3.89;100.00
27202;BME280;14717;46.924;15.474;2022-11-20T08:24:58;97470.00;;;4.01;100.00
27202;BME280;14717;46.924;15.474;2022-11-20T08:27:23;97467.34;;;4.11;100.00
27202;BME280;14717;46.924;15.474;2022-11-20T08:29:49;97474.81;;;4.20;100.00
27202;BME280;14717;46.924;15.474;2022-11-20T08:32:14;97481.44;;;4.29;100.00
27202;BME280;14717;46.924;15.474;2022-11-20T08:34:39;97484.47;;;4.32;100.00
27202;BME280;14717;46.924;15.474;2022-11-20T08:37:05;97477.09;;;4.33;100.00
27202;BME280;14717;46.924;15.474;2022-11-20T08:39:30;97487.50;;;4.36;100.00
27202;BME280;14717;46.924;15.474;2022-11-20T08:41:56;97484.28;;;4.44;100.00
27202;BME280;14717;46.924;15.474;2022-11-20T08:44:23;97486.75;;;4.45;100.00
27202;BME280;14717;46.924;15.474;2022-11-20T08:46:48;97475.53;;;4.47;100.00
27202;BME280;14717;46.924;15.474;2022-11-20T08:49:14;97483.97;;;4.40;100.00
27202;BME280;14717;46.924;15.474;2022-11-20T08:51:40;97484.75;;;4.31;100.00
27202;BME280;14717;46.924;15.474;2022-11-20T08:54:06;97485.31;;;4.38;100.00
27202;BME280;14717;46.924;15.474;2022-11-20T08:56:33;97487.03;;;4.44;100.00
27202;BME280;14717;46.924;15.474;2022-11-20T08:58:58;97477.72;;;4.45;100.00
27202;BME280;14717;46.924;15.474;2022-11-20T09:01:28;97476.94;;;4.49;100.00
27202;BME280;14717;46.924;15.474;2022-11-20T09:03:57;97478.88;;;4.54;100.00
27202;BME280;14717;46.924;15.474;2022-11-20T09:06:23;97493.84;;;4.46;100.00
27202;BME280;14717;46.924;15.474;2022-11-20T09:08:52;97492.47;;;4.39;100.00
27202;BME280;14717;46.924;15.474;2022-11-20T09:11:17;97483.00;;;4.20;100.00
27202;BME280;14717;46.924;15.474;2022-11-20T09:13:43;97489.09;;;4.32;100.00
27202;BME280;14717;46.924;15.474;2022-11-20T09:16:08;97493.19;;;4.29;100.00
27202;BME280;14717;46.924;15.474;2022-11-20T09:18:34;97503.56;;;4.27;100.00
27202;BME280;14717;46.924;15.474;2022-11-20T09:21:08;97492.38;;;4.29;100.00
27202;BME280;14717;46.924;15.474;2022-11-20T09:23:36;97494.31;;;4.33;100.00
27202;BME280;14717;46.924;15.474;2022-11-20T09:26:08;97491.09;;;4.41;100.00
27202;BME280;14717;46.924;15.474;2022-11-20T09:28:34;97488.00;;;4.28;100.00
27202;BME280;14717;46.924;15.474;2022-11-20T09:30:59;97484.66;;;4.21;100.00
27202;BME280;14717;46.924;15.474;2022-11-20T09:33:25;97487.13;;;4.22;100.00
27202;BME280;14717;46.924;15.474;2022-11-20T09:35:51;97485.22;;;4.23;100.00
27202;BME280;14717;46.924;15.474;2022-11-20T09:38:16;97481.34;;;4.14;100.00
27202;BME280;14717;46.924;15.474;2022-11-20T09:40:50;97482.78;;;4.26;100.00
27202;BME280;14717;46.924;15.474;2022-11-20T09:48:57;97483.13;;;4.35;100.00
27202;BME280;14717;46.924;15.474;2022-11-20T09:54:20;97477.97;;;4.43;100.00
27202;BME280;14717;46.924;15.474;2022-11-20T09:56:50;97469.28;;;4.51;100.00
27202;BME280;14717;46.924;15.474;2022-11-20T09:59:29;97472.31;;;4.55;100.00
27202;BME280;14717;46.924;15.474;2022-11-20T10:01:59;97476.63;;;4.46;100.00
27202;BME280;14717;46.924;15.474;2022-11-20T10:04:26;97477.69;;;4.40;100.00
27202;BME280;14717;46.924;15.474;2022-11-20T10:07:13;97473.13;;;4.50;100.00
27202;BME280;14717;46.924;15.474;2022-11-20T10:09:44;97466.88;;;4.60;100.00
27202;BME280;14717;46.924;15.474;2022-11-20T10:12:24;97465.09;;;4.85;100.00
27202;BME280;14717;46.924;15.474;2022-11-20T10:15:12;97458.34;;;5.07;100.00
27202;BME280;14717;46.924;15.474;2022-11-20T10:31:41;97451.88;;;5.38;100.00
27202;BME280;14717;46.924;15.474;2022-11-20T10:36:58;97449.19;;;5.62;100.00
27202;BME280;14717;46.924;15.474;2022-11-20T10:42:11;97448.69;;;5.75;100.00
27202;BME280;14717;46.924;15.474;2022-11-20T10:44:39;97453.06;;;5.86;100.00
27202;BME280;14717;46.924;15.474;2022-11-20T10:47:28;97450.31;;;6.01;100.00
27202;BME280;14717;46.924;15.474;2022-11-20T10:49:57;97446.22;;;5.89;100.00
27202;BME280;14717;46.924;15.474;2022-11-20T11:01:11;97431.97;;;6.11;99.58
27202;BME280;14717;46.924;15.474;2022-11-20T11:03:38;97431.66;;;6.23;100.00
27202;BME280;14717;46.924;15.474;2022-11-20T11:06:14;97438.78;;;6.34;100.00
27202;BME280;14717;46.924;15.474;2022-11-20T11:08:42;97436.06;;;6.34;98.37
27202;BME280;14717;46.924;15.474;2022-11-20T11:13:47;97434.41;;;6.47;98.57
27202;BME280;14717;46.924;15.474;2022-11-20T11:16:24;97444.22;;;6.63;97.65
27202;BME280;14717;46.924;15.474;2022-11-20T11:18:51;97438.72;;;6.68;96.80
27202;BME280;14717;46.924;15.474;2022-11-20T11:21:24;97434.88;;;6.74;97.73
27202;BME280;14717;46.924;15.474;2022-11-20T11:24:02;97435.41;;;6.76;95.91
27202;BME280;14717;46.924;15.474;2022-11-20T11:26:28;97436.72;;;6.88;95.98
27202;BME280;14717;46.924;15.474;2022-11-20T11:29:04;97436.16;;;6.91;92.41
27202;BME280;14717;46.924;15.474;2022-11-20T11:31:34;97433.66;;;7.00;93.76
27202;BME280;14717;46.924;15.474;2022-11-20T11:34:14;97426.81;;;6.97;94.50
27202;BME280;14717;46.924;15.474;2022-11-20T11:36:41;97420.97;;;7.19;95.44
27202;BME280;14717;46.924;15.474;2022-11-20T11:39:18;97414.41;;;7.05;95.03
27202;BME280;14717;46.924;15.474;2022-11-20T11:41:45;97419.06;;;7.14;94.49
27202;BME280;14717;46.924;15.474;2022-11-20T11:44:33;97416.28;;;7.19;95.05
27202;BME280;14717;46.924;15.474;2022-11-20T11:47:26;97416.22;;;7.29;92.56
27202;BME280;14717;46.924;15.474;2022-11-20T11:52:47;97404.19;;;7.20;93.99
27202;BME280;14717;46.924;15.474;2022-11-20T11:55:19;97407.81;;;7.11;95.30
27202;BME280;14717;46.924;15.474;2022-11-20T12:00:35;97407.13;;;7.33;94.43
27202;BME280;14717;46.924;15.474;2022-11-20T12:03:15;97400.66;;;7.10;94.83
27202;BME280;14717;46.924;15.474;2022-11-20T12:05:49;97395.63;;;7.31;96.55
27202;BME280;14717;46.924;15.474;2022-11-20T12:08:23;97391.03;;;7.60;95.32
27202;BME280;14717;46.924;15.474;2022-11-20T12:11:05;97389.06;;;7.65;92.40
27202;BME280;14717;46.924;15.474;2022-11-20T12:16:13;97390.59;;;7.81;90.63
27202;BME280;14717;46.924;15.474;2022-11-20T12:18:40;97396.28;;;7.90;90.84
27202;BME280;14717;46.924;15.474;2022-11-20T12:21:15;97401.13;;;8.03;91.07
27202;BME280;14717;46.924;15.474;2022-11-20T12:29:59;97402.03;;;8.26;90.78
27202;BME280;14717;46.924;15.474;2022-11-20T12:32:50;97396.69;;;8.06;89.83
27202;BME280;14717;46.924;15.474;2022-11-20T12:38:30;97395.06;;;8.39;90.48
27202;BME280;14717;46.924;15.474;2022-11-20T12:44:20;97391.94;;;8.22;91.16
27202;BME280;14717;46.924;15.474;2022-11-20T12:47:24;97386.91;;;8.29;91.78
27202;BME280;14717;46.924;15.474;2022-11-20T12:50:02;97386.75;;;8.15;90.91
27202;BME280;14717;46.924;15.474;2022-11-20T12:55:16;97387.34;;;8.07;91.85
27202;BME280;14717;46.924;15.474;2022-11-20T12:57:53;97386.88;;;8.01;92.35
27202;BME280;14717;46.924;15.474;2022-11-20T13:00:21;97385.94;;;7.77;92.73
27202;BME280;14717;46.924;15.474;2022-11-20T13:05:49;97385.28;;;7.90;92.00
27202;BME280;14717;46.924;15.474;2022-11-20T13:08:29;97385.38;;;8.13;92.43
27202;BME280;14717;46.924;15.474;2022-11-20T13:11:18;97386.25;;;8.08;91.24
27202;BME280;14717;46.924;15.474;2022-11-20T13:14:10;97384.41;;;7.99;92.84
27202;BME280;14717;46.924;15.474;2022-11-20T13:19:16;97384.97;;;8.29;91.73
27202;BME280;14717;46.924;15.474;2022-11-20T13:21:44;97382.50;;;8.28;91.89
27202;BME280;14717;46.924;15.474;2022-11-20T13:29:26;97380.19;;;8.06;92.17
27202;BME280;14717;46.924;15.474;2022-11-20T13:32:03;97378.91;;;7.99;92.34
27202;BME280;14717;46.924;15.474;2022-11-20T13:34:30;97379.38;;;7.73;92.51
27202;BME280;14717;46.924;15.474;2022-11-20T13:36:58;97369.53;;;7.67;93.82
27202;BME280;14717;46.924;15.474;2022-11-20T13:39:27;97370.66;;;7.66;93.84
27202;BME280;14717;46.924;15.474;2022-11-20T13:42:20;97370.16;;;7.59;93.90
27202;BME280;14717;46.924;15.474;2022-11-20T13:44:46;97367.16;;;7.51;95.03
27202;BME280;14717;46.924;15.474;2022-11-20T13:47:26;97371.91;;;7.45;95.80
27202;BME280;14717;46.924;15.474;2022-11-20T13:49:52;97380.16;;;7.40;96.20
27202;BME280;14717;46.924;15.474;2022-11-20T14:00:14;97376.72;;;7.25;97.61
27202;BME280;14717;46.924;15.474;2022-11-20T14:02:41;97373.50;;;7.13;98.58
27202;BME280;14717;46.924;15.474;2022-11-20T14:05:18;97373.19;;;7.10;99.15
27202;BME280;14717;46.924;15.474;2022-11-20T14:07:45;97368.28;;;7.12;98.96
27202;BME280;14717;46.924;15.474;2022-11-20T14:10:27;97366.63;;;7.11;98.98
27202;BME280;14717;46.924;15.474;2022-11-20T14:12:53;97369.13;;;7.07;99.55
27202;BME280;14717;46.924;15.474;2022-11-20T14:15:30;97362.81;;;7.07;99.48
27202;BME280;14717;46.924;15.474;2022-11-20T14:17:57;97361.16;;;7.06;100.00
27202;BME280;14717;46.924;15.474;2022-11-20T14:20:25;97355.16;;;6.99;99.84
27202;BME280;14717;46.924;15.474;2022-11-20T14:22:53;97358.41;;;7.06;99.44
27202;BME280;14717;46.924;15.474;2022-11-20T14:25:20;97356.47;;;7.06;100.00
27202;BME280;14717;46.924;15.474;2022-11-20T14:27:52;97357.88;;;7.04;99.70
27202;BME280;14717;46.924;15.474;2022-11-20T14:30:29;97352.44;;;6.94;99.65
27202;BME280;14717;46.924;15.474;2022-11-20T14:33:02;97355.78;;;6.86;100.00